Obelix — 7JAX — position and weather

sailwx.info

Track history (hours):
 
Tides and Currents Weather Stations Pressure Air Temp Water Temp Dewpoint Dewpoint Depression Visibility Wind Speed Wind Dir Waves Ship Positions

Obelix

Last reported at 2015-Jan-26 06:09 UTC. Time now 2015-Jan-27 14:28 UTC.
Position N 34°37' E 134°58'.

Length 74 m; draft 4.5 m.

Type: Ship (hazmat cat D). MMSI: 432528000.

Date/timePositionNaut miles runAvg speedWind from/ knotsBaromVisibWave heightAir tempDewpointWater temp
2015-Jan-26 06:09N 34°37' E 134°58'711.6
2015-Jan-26 05:33N 34°35' E 135°06'1212.1
2015-Jan-26 04:32N 34°34' E 135°21'4 3.9
2015-Jan-26 03:33N 34°33' E 135°25'0 0.0
2015-Jan-26 02:30N 34°33' E 135°25'0 0.0
2015-Jan-26 01:30N 34°33' E 135°25'0 0.0
2015-Jan-26 00:30N 34°33' E 135°25'0 0.0
2015-Jan-25 23:30N 34°33' E 135°25'5 5.1
2015-Jan-25 22:33N 34°32' E 135°19'0 0.1
2015-Jan-25 21:29N 34°32' E 135°19'0 0.0
2015-Jan-25 20:11N 34°32' E 135°19'0 0.0
2015-Jan-25 19:11N 34°32' E 135°19'0 0.1
2015-Jan-25 18:29N 34°32' E 135°19'0 0.0
2015-Jan-25 17:17N 34°32' E 135°19'0 0.0
2015-Jan-25 16:29N 34°32' E 135°19'0 0.0
2015-Jan-25 15:29N 34°32' E 135°19'0 0.1
2015-Jan-25 14:29N 34°32' E 135°19'0 0.0
2015-Jan-25 13:23N 34°32' E 135°19'0 0.0
2015-Jan-25 12:23N 34°32' E 135°19'0 0.0
2015-Jan-25 11:29N 34°32' E 135°19'0 0.0
2015-Jan-25 10:29N 34°32' E 135°19'0 0.0
2015-Jan-25 09:29N 34°32' E 135°19'0 0.1
2015-Jan-25 08:29N 34°32' E 135°19'0 0.0
2015-Jan-25 07:23N 34°32' E 135°19'0 0.0
2015-Jan-25 06:29N 34°32' E 135°19'0 0.0
2015-Jan-25 05:29N 34°32' E 135°19'0 0.0
2015-Jan-25 01:11N 34°32' E 135°19'0 0.0
2015-Jan-25 00:23N 34°32' E 135°19'0 0.0
2015-Jan-24 23:17N 34°32' E 135°19'0 0.0
2015-Jan-24 22:11N 34°32' E 135°19'0 0.0
2015-Jan-24 21:29N 34°32' E 135°19'0 0.0
2015-Jan-24 20:29N 34°32' E 135°19'0 0.0
2015-Jan-24 19:29N 34°32' E 135°19'0 0.0
2015-Jan-24 18:29N 34°32' E 135°19'0 0.0
2015-Jan-24 17:29N 34°32' E 135°19'0 0.0
2015-Jan-24 16:29N 34°32' E 135°19'0 0.0
2015-Jan-24 15:23N 34°32' E 135°19'0 0.0
2015-Jan-24 14:23N 34°32' E 135°19'0 0.0
2015-Jan-24 13:23N 34°32' E 135°19'0 0.0
2015-Jan-24 12:29N 34°32' E 135°19'0 0.0
2015-Jan-24 11:11N 34°32' E 135°19'0 0.0
2015-Jan-24 09:29N 34°32' E 135°19'0 0.0
2015-Jan-24 08:29N 34°32' E 135°19'0 0.0
2015-Jan-24 07:11N 34°32' E 135°19'0 0.1
2015-Jan-24 06:29N 34°32' E 135°19'3 3.5
2015-Jan-24 05:33N 34°33' E 135°16'1211.6
2015-Jan-24 04:33N 34°36' E 135°02'1111.0
2015-Jan-24 03:31N 34°40' E 134°49'3 0.5
2015-Jan-23 22:29N 34°42' E 134°47'0 0.0
2015-Jan-23 13:07N 34°42' E 134°47'5 0.7
2015-Jan-23 06:24N 34°39' E 134°51'8 8.9
2015-Jan-23 05:27N 34°37' E 135°01'1011.1
2015-Jan-23 04:33N 34°34' E 135°13'1110.3
2015-Jan-23 03:32N 34°33' E 135°25'0 0.1
2015-Jan-23 02:22N 34°33' E 135°25'0 0.0
2015-Jan-23 01:22N 34°33' E 135°25'0 0.0
2015-Jan-23 00:33N 34°33' E 135°25'5 5.4
2015-Jan-22 23:33N 34°31' E 135°19'0 0.0
2015-Jan-22 22:31N 34°31' E 135°19'0 0.0
2015-Jan-22 21:13N 34°31' E 135°19'0 0.0
2015-Jan-22 20:31N 34°31' E 135°19'0 0.0
2015-Jan-22 19:31N 34°31' E 135°19'0 0.0
2015-Jan-22 18:31N 34°31' E 135°19'0 0.0
2015-Jan-22 17:31N 34°31' E 135°19'0 0.0
2015-Jan-22 16:31N 34°31' E 135°19'0 0.0
2015-Jan-22 15:19N 34°31' E 135°19'0 0.0
2015-Jan-22 14:25N 34°31' E 135°19'0 0.0
2015-Jan-22 13:31N 34°31' E 135°19'0 0.0
2015-Jan-22 12:31N 34°31' E 135°19'0 0.0
2015-Jan-22 11:31N 34°31' E 135°19'0 0.0
2015-Jan-22 10:31N 34°31' E 135°19'0 0.0
2015-Jan-22 09:31N 34°31' E 135°19'0 0.0
2015-Jan-22 08:31N 34°31' E 135°19'0 0.0
2015-Jan-22 07:19N 34°31' E 135°19'0 0.0
2015-Jan-22 06:31N 34°31' E 135°19'0 0.0
2015-Jan-22 05:31N 34°31' E 135°19'0 0.0
2015-Jan-22 04:31N 34°31' E 135°19'0 0.0
2015-Jan-22 03:25N 34°31' E 135°19'0 0.1
2015-Jan-22 02:31N 34°31' E 135°19'0 0.0
2015-Jan-22 01:25N 34°31' E 135°19'0 0.0
2015-Jan-22 00:19N 34°31' E 135°19'0 0.0
2015-Jan-21 23:19N 34°31' E 135°19'0 0.0
2015-Jan-21 22:37N 34°31' E 135°19'0 0.1
2015-Jan-21 22:31N 34°31' E 135°19'0 0.0
2015-Jan-21 21:31N 34°31' E 135°19'0 0.0
2015-Jan-21 20:31N 34°31' E 135°19'0 0.0
2015-Jan-21 19:31N 34°31' E 135°19'0 0.0
2015-Jan-21 18:25N 34°31' E 135°19'0 0.0
2015-Jan-21 17:31N 34°31' E 135°19'0 0.0
2015-Jan-21 16:31N 34°31' E 135°19'0 0.0
2015-Jan-21 15:31N 34°31' E 135°19'0 0.0
2015-Jan-21 14:25N 34°31' E 135°19'0 0.0
2015-Jan-21 13:31N 34°31' E 135°19'0 0.0
2015-Jan-21 12:31N 34°31' E 135°19'0 0.0
2015-Jan-21 11:31N 34°31' E 135°19'0 0.0
2015-Jan-21 10:31N 34°31' E 135°19'8 8.5
2015-Jan-21 09:33N 34°35' E 135°10'1212.0
2015-Jan-21 08:32N 34°36' E 134°55'2 0.1
2015-Jan-20 06:23N 34°37' E 134°54'8 9.3
2015-Jan-20 05:32N 34°36' E 135°03'1010.6
2015-Jan-20 04:33N 34°34' E 135°16'8 7.0
2015-Jan-20 03:24N 34°33' E 135°25'0 0.0
2015-Jan-20 02:25N 34°33' E 135°25'0 0.0
2015-Jan-20 01:18N 34°33' E 135°25'0 0.0
2015-Jan-20 00:30N 34°33' E 135°25'0 0.0
2015-Jan-19 23:30N 34°33' E 135°25'2 1.7
2015-Jan-19 22:32N 34°33' E 135°24'4 3.4
2015-Jan-19 21:28N 34°32' E 135°20'0 0.0
2015-Jan-19 20:16N 34°32' E 135°20'0 0.0
2015-Jan-19 19:16N 34°32' E 135°20'0 0.0
2015-Jan-19 18:28N 34°32' E 135°20'0 0.0
2015-Jan-19 17:28N 34°32' E 135°20'0 0.0
2015-Jan-19 16:28N 34°32' E 135°20'0 0.0
2015-Jan-19 15:16N 34°32' E 135°20'0 0.0
2015-Jan-19 14:22N 34°32' E 135°20'0 0.0
2015-Jan-19 13:28N 34°32' E 135°20'0 0.0
2015-Jan-19 12:22N 34°32' E 135°20'0 0.0
2015-Jan-19 11:22N 34°32' E 135°20'0 0.0
2015-Jan-19 10:28N 34°32' E 135°20'3 3.1
2015-Jan-19 09:32N 34°31' E 135°16'1111.7
2015-Jan-19 08:33N 34°23' E 135°06'1111.0
2015-Jan-19 07:33N 34°14' E 135°00'1211.6
2015-Jan-19 06:33N 34°02' E 135°01'210 9.1
2015-Jan-18 07:30N 34°46' E 139°09'1412.9
2015-Jan-18 06:25N 34°55' E 139°22'1112.2
2015-Jan-18 05:33N 35°01' E 139°32'1212.1
2015-Jan-18 04:33N 35°09' E 139°44'1110.9
2015-Jan-18 03:33N 35°20' E 139°43'1111.0
2015-Jan-18 02:33N 35°29' E 139°50'4 1.1
2015-Jan-17 23:06N 35°29' E 139°55'0 0.0
2015-Jan-17 22:12N 35°29' E 139°55'0 0.0
2015-Jan-17 21:30N 35°29' E 139°55'0 0.0
2015-Jan-17 20:12N 35°29' E 139°55'0 0.1
2015-Jan-17 19:30N 35°29' E 139°55'0 0.0
2015-Jan-17 18:32N 35°29' E 139°55'0 0.0
2015-Jan-17 17:29N 35°29' E 139°55'0 0.0
2015-Jan-17 16:31N 35°29' E 139°55'0 0.0
2015-Jan-17 15:22N 35°29' E 139°55'0 0.0
2015-Jan-17 14:28N 35°29' E 139°55'0 0.0
2015-Jan-17 13:23N 35°29' E 139°55'0 0.0
2015-Jan-17 12:19N 35°29' E 139°55'0 0.0
2015-Jan-17 11:27N 35°29' E 139°55'0 0.0
2015-Jan-17 10:33N 35°29' E 139°55'0 0.0
2015-Jan-17 09:32N 35°29' E 139°55'0 0.0
2015-Jan-17 08:26N 35°29' E 139°55'0 0.0
2015-Jan-17 07:28N 35°29' E 139°55'0 0.0
2015-Jan-17 04:31N 35°29' E 139°55'0 0.0
2015-Jan-17 03:33N 35°29' E 139°55'0 0.0
2015-Jan-17 02:33N 35°29' E 139°55'0 0.0
2015-Jan-17 01:32N 35°29' E 139°55'0 0.0
2015-Jan-17 00:30N 35°29' E 139°55'0 0.1
2015-Jan-16 23:28N 35°29' E 139°55'0 0.0
2015-Jan-16 22:19N 35°29' E 139°55'0 0.1
2015-Jan-16 21:33N 35°29' E 139°55'0 0.1
2015-Jan-16 20:30N 35°29' E 139°55'0 0.0
2015-Jan-16 19:33N 35°29' E 139°55'0 0.0
2015-Jan-16 18:31N 35°29' E 139°55'0 0.0
2015-Jan-16 17:22N 35°29' E 139°55'0 0.1
2015-Jan-16 16:28N 35°29' E 139°55'0 0.0
2015-Jan-16 15:31N 35°29' E 139°55'2 0.7
2015-Jan-16 12:19N 35°28' E 139°52'911.7
2015-Jan-16 11:33N 35°21' E 139°45'1111.5
2015-Jan-16 10:33N 35°10' E 139°46'1212.2
2015-Jan-16 09:33N 34°58' E 139°43'14 9.5
2015-Jan-16 08:03N 34°54' E 139°60'1912.4
2015-Jan-16 06:33N 35°04' E 140°18'  
Track history (hours):
 
Tides and Currents Weather Stations Pressure Air Temp Water Temp Dewpoint Dewpoint Depression Visibility Wind Speed Wind Dir Waves Ship Positions

Obelix

Last reported at 2015-Jan-26 06:09 UTC. Time now 2015-Jan-27 14:28 UTC.
Position N 34°37' E 134°58'.

Length 74 m; draft 4.5 m.

Type: Ship (hazmat cat D). MMSI: 432528000.

Date/timePositionNaut miles runAvg speedWind from/ knotsBaromVisibWave heightAir tempDewpointWater temp
2015-Jan-26 06:09N 34°37' E 134°58'711.6
2015-Jan-26 05:33N 34°35' E 135°06'1212.1
2015-Jan-26 04:32N 34°34' E 135°21'4 3.9
2015-Jan-26 03:33N 34°33' E 135°25'0 0.0
2015-Jan-26 02:30N 34°33' E 135°25'0 0.0
2015-Jan-26 01:30N 34°33' E 135°25'0 0.0
2015-Jan-26 00:30N 34°33' E 135°25'0 0.0
2015-Jan-25 23:30N 34°33' E 135°25'5 5.1
2015-Jan-25 22:33N 34°32' E 135°19'0 0.1
2015-Jan-25 21:29N 34°32' E 135°19'0 0.0
2015-Jan-25 20:11N 34°32' E 135°19'0 0.0
2015-Jan-25 19:11N 34°32' E 135°19'0 0.1
2015-Jan-25 18:29N 34°32' E 135°19'0 0.0
2015-Jan-25 17:17N 34°32' E 135°19'0 0.0
2015-Jan-25 16:29N 34°32' E 135°19'0 0.0
2015-Jan-25 15:29N 34°32' E 135°19'0 0.1
2015-Jan-25 14:29N 34°32' E 135°19'0 0.0
2015-Jan-25 13:23N 34°32' E 135°19'0 0.0
2015-Jan-25 12:23N 34°32' E 135°19'0 0.0
2015-Jan-25 11:29N 34°32' E 135°19'0 0.0
2015-Jan-25 10:29N 34°32' E 135°19'0 0.0
2015-Jan-25 09:29N 34°32' E 135°19'0 0.1
2015-Jan-25 08:29N 34°32' E 135°19'0 0.0
2015-Jan-25 07:23N 34°32' E 135°19'0 0.0
2015-Jan-25 06:29N 34°32' E 135°19'0 0.0
2015-Jan-25 05:29N 34°32' E 135°19'0 0.0
2015-Jan-25 01:11N 34°32' E 135°19'0 0.0
2015-Jan-25 00:23N 34°32' E 135°19'0 0.0
2015-Jan-24 23:17N 34°32' E 135°19'0 0.0
2015-Jan-24 22:11N 34°32' E 135°19'0 0.0
2015-Jan-24 21:29N 34°32' E 135°19'0 0.0
2015-Jan-24 20:29N 34°32' E 135°19'0 0.0
2015-Jan-24 19:29N 34°32' E 135°19'0 0.0
2015-Jan-24 18:29N 34°32' E 135°19'0 0.0
2015-Jan-24 17:29N 34°32' E 135°19'0 0.0
2015-Jan-24 16:29N 34°32' E 135°19'0 0.0
2015-Jan-24 15:23N 34°32' E 135°19'0 0.0
2015-Jan-24 14:23N 34°32' E 135°19'0 0.0
2015-Jan-24 13:23N 34°32' E 135°19'0 0.0
2015-Jan-24 12:29N 34°32' E 135°19'0 0.0
2015-Jan-24 11:11N 34°32' E 135°19'0 0.0
2015-Jan-24 09:29N 34°32' E 135°19'0 0.0
2015-Jan-24 08:29N 34°32' E 135°19'0 0.0
2015-Jan-24 07:11N 34°32' E 135°19'0 0.1
2015-Jan-24 06:29N 34°32' E 135°19'3 3.5
2015-Jan-24 05:33N 34°33' E 135°16'1211.6
2015-Jan-24 04:33N 34°36' E 135°02'1111.0
2015-Jan-24 03:31N 34°40' E 134°49'3 0.5
2015-Jan-23 22:29N 34°42' E 134°47'0 0.0
2015-Jan-23 13:07N 34°42' E 134°47'5 0.7
2015-Jan-23 06:24N 34°39' E 134°51'8 8.9
2015-Jan-23 05:27N 34°37' E 135°01'1011.1
2015-Jan-23 04:33N 34°34' E 135°13'1110.3
2015-Jan-23 03:32N 34°33' E 135°25'0 0.1
2015-Jan-23 02:22N 34°33' E 135°25'0 0.0
2015-Jan-23 01:22N 34°33' E 135°25'0 0.0
2015-Jan-23 00:33N 34°33' E 135°25'5 5.4
2015-Jan-22 23:33N 34°31' E 135°19'0 0.0
2015-Jan-22 22:31N 34°31' E 135°19'0 0.0
2015-Jan-22 21:13N 34°31' E 135°19'0 0.0
2015-Jan-22 20:31N 34°31' E 135°19'0 0.0
2015-Jan-22 19:31N 34°31' E 135°19'0 0.0
2015-Jan-22 18:31N 34°31' E 135°19'0 0.0
2015-Jan-22 17:31N 34°31' E 135°19'0 0.0
2015-Jan-22 16:31N 34°31' E 135°19'0 0.0
2015-Jan-22 15:19N 34°31' E 135°19'0 0.0
2015-Jan-22 14:25N 34°31' E 135°19'0 0.0
2015-Jan-22 13:31N 34°31' E 135°19'0 0.0
2015-Jan-22 12:31N 34°31' E 135°19'0 0.0
2015-Jan-22 11:31N 34°31' E 135°19'0 0.0
2015-Jan-22 10:31N 34°31' E 135°19'0 0.0
2015-Jan-22 09:31N 34°31' E 135°19'0 0.0
2015-Jan-22 08:31N 34°31' E 135°19'0 0.0
2015-Jan-22 07:19N 34°31' E 135°19'0 0.0
2015-Jan-22 06:31N 34°31' E 135°19'0 0.0
2015-Jan-22 05:31N 34°31' E 135°19'0 0.0
2015-Jan-22 04:31N 34°31' E 135°19'0 0.0
2015-Jan-22 03:25N 34°31' E 135°19'0 0.1
2015-Jan-22 02:31N 34°31' E 135°19'0 0.0
2015-Jan-22 01:25N 34°31' E 135°19'0 0.0
2015-Jan-22 00:19N 34°31' E 135°19'0 0.0
2015-Jan-21 23:19N 34°31' E 135°19'0 0.0
2015-Jan-21 22:37N 34°31' E 135°19'0 0.1
2015-Jan-21 22:31N 34°31' E 135°19'0 0.0
2015-Jan-21 21:31N 34°31' E 135°19'0 0.0
2015-Jan-21 20:31N 34°31' E 135°19'0 0.0
2015-Jan-21 19:31N 34°31' E 135°19'0 0.0
2015-Jan-21 18:25N 34°31' E 135°19'0 0.0
2015-Jan-21 17:31N 34°31' E 135°19'0 0.0
2015-Jan-21 16:31N 34°31' E 135°19'0 0.0
2015-Jan-21 15:31N 34°31' E 135°19'0 0.0
2015-Jan-21 14:25N 34°31' E 135°19'0 0.0
2015-Jan-21 13:31N 34°31' E 135°19'0 0.0
2015-Jan-21 12:31N 34°31' E 135°19'0 0.0
2015-Jan-21 11:31N 34°31' E 135°19'0 0.0
2015-Jan-21 10:31N 34°31' E 135°19'8 8.5
2015-Jan-21 09:33N 34°35' E 135°10'1212.0
2015-Jan-21 08:32N 34°36' E 134°55'2 0.1
2015-Jan-20 06:23N 34°37' E 134°54'8 9.3
2015-Jan-20 05:32N 34°36' E 135°03'1010.6
2015-Jan-20 04:33N 34°34' E 135°16'8 7.0
2015-Jan-20 03:24N 34°33' E 135°25'0 0.0
2015-Jan-20 02:25N 34°33' E 135°25'0 0.0
2015-Jan-20 01:18N 34°33' E 135°25'0 0.0
2015-Jan-20 00:30N 34°33' E 135°25'0 0.0
2015-Jan-19 23:30N 34°33' E 135°25'2 1.7
2015-Jan-19 22:32N 34°33' E 135°24'4 3.4
2015-Jan-19 21:28N 34°32' E 135°20'0 0.0
2015-Jan-19 20:16N 34°32' E 135°20'0 0.0
2015-Jan-19 19:16N 34°32' E 135°20'0 0.0
2015-Jan-19 18:28N 34°32' E 135°20'0 0.0
2015-Jan-19 17:28N 34°32' E 135°20'0 0.0
2015-Jan-19 16:28N 34°32' E 135°20'0 0.0
2015-Jan-19 15:16N 34°32' E 135°20'0 0.0
2015-Jan-19 14:22N 34°32' E 135°20'0 0.0
2015-Jan-19 13:28N 34°32' E 135°20'0 0.0
2015-Jan-19 12:22N 34°32' E 135°20'0 0.0
2015-Jan-19 11:22N 34°32' E 135°20'0 0.0
2015-Jan-19 10:28N 34°32' E 135°20'3 3.1
2015-Jan-19 09:32N 34°31' E 135°16'1111.7
2015-Jan-19 08:33N 34°23' E 135°06'1111.0
2015-Jan-19 07:33N 34°14' E 135°00'1211.6
2015-Jan-19 06:33N 34°02' E 135°01'210 9.1
2015-Jan-18 07:30N 34°46' E 139°09'1412.9
2015-Jan-18 06:25N 34°55' E 139°22'1112.2
2015-Jan-18 05:33N 35°01' E 139°32'1212.1
2015-Jan-18 04:33N 35°09' E 139°44'1110.9
2015-Jan-18 03:33N 35°20' E 139°43'1111.0
2015-Jan-18 02:33N 35°29' E 139°50'4 1.1
2015-Jan-17 23:06N 35°29' E 139°55'0 0.0
2015-Jan-17 22:12N 35°29' E 139°55'0 0.0
2015-Jan-17 21:30N 35°29' E 139°55'0 0.0
2015-Jan-17 20:12N 35°29' E 139°55'0 0.1
2015-Jan-17 19:30N 35°29' E 139°55'0 0.0
2015-Jan-17 18:32N 35°29' E 139°55'0 0.0
2015-Jan-17 17:29N 35°29' E 139°55'0 0.0
2015-Jan-17 16:31N 35°29' E 139°55'0 0.0
2015-Jan-17 15:22N 35°29' E 139°55'0 0.0
2015-Jan-17 14:28N 35°29' E 139°55'0 0.0
2015-Jan-17 13:23N 35°29' E 139°55'0 0.0
2015-Jan-17 12:19N 35°29' E 139°55'0 0.0
2015-Jan-17 11:27N 35°29' E 139°55'0 0.0
2015-Jan-17 10:33N 35°29' E 139°55'0 0.0
2015-Jan-17 09:32N 35°29' E 139°55'0 0.0
2015-Jan-17 08:26N 35°29' E 139°55'0 0.0
2015-Jan-17 07:28N 35°29' E 139°55'0 0.0
2015-Jan-17 04:31N 35°29' E 139°55'0 0.0
2015-Jan-17 03:33N 35°29' E 139°55'0 0.0
2015-Jan-17 02:33N 35°29' E 139°55'0 0.0
2015-Jan-17 01:32N 35°29' E 139°55'0 0.0
2015-Jan-17 00:30N 35°29' E 139°55'0 0.1
2015-Jan-16 23:28N 35°29' E 139°55'0 0.0
2015-Jan-16 22:19N 35°29' E 139°55'0 0.1
2015-Jan-16 21:33N 35°29' E 139°55'0 0.1
2015-Jan-16 20:30N 35°29' E 139°55'0 0.0
2015-Jan-16 19:33N 35°29' E 139°55'0 0.0
2015-Jan-16 18:31N 35°29' E 139°55'0 0.0
2015-Jan-16 17:22N 35°29' E 139°55'0 0.1
2015-Jan-16 16:28N 35°29' E 139°55'0 0.0
2015-Jan-16 15:31N 35°29' E 139°55'2 0.7
2015-Jan-16 12:19N 35°28' E 139°52'911.7
2015-Jan-16 11:33N 35°21' E 139°45'1111.5
2015-Jan-16 10:33N 35°10' E 139°46'1212.2
2015-Jan-16 09:33N 34°58' E 139°43'14 9.5
2015-Jan-16 08:03N 34°54' E 139°60'1912.4
2015-Jan-16 06:33N 35°04' E 140°18'  

Dump ship's entire track history